createdAt,value
2022-11-06T00:00:43.598Z,8.13
2022-11-06T00:03:12.149Z,7.37
2022-11-06T00:05:59.432Z,9.27
2022-11-06T00:08:29.958Z,9.40
2022-11-06T00:10:57.969Z,8.20
2022-11-06T00:13:28.098Z,7.35
2022-11-06T00:15:56.061Z,8.07
2022-11-06T00:18:27.666Z,7.70
2022-11-06T00:20:55.606Z,8.50
2022-11-06T00:23:23.450Z,8.70
2022-11-06T00:25:56.612Z,7.70
2022-11-06T00:28:24.992Z,7.53
2022-11-06T00:31:02.798Z,9.00
2022-11-06T00:33:30.793Z,7.60
2022-11-06T00:35:59.226Z,7.83
2022-11-06T00:38:27.259Z,8.03
2022-11-06T00:40:55.433Z,7.03
2022-11-06T00:43:23.288Z,7.20
2022-11-06T00:45:51.177Z,7.47
2022-11-06T00:48:20.764Z,7.63
2022-11-06T00:50:48.737Z,8.00
2022-11-06T00:53:16.789Z,7.83
2022-11-06T00:55:44.749Z,8.73
2022-11-06T00:58:13.086Z,7.67
2022-11-06T01:00:41.278Z,8.53
2022-11-06T01:03:09.365Z,8.17
2022-11-06T01:05:39.624Z,7.67
2022-11-06T01:08:07.505Z,8.23
2022-11-06T01:10:37.880Z,8.80
2022-11-06T01:13:05.775Z,7.20
2022-11-06T01:15:37.353Z,7.90
2022-11-06T01:18:05.767Z,8.00
2022-11-06T01:20:33.682Z,7.70
2022-11-06T01:23:02.896Z,7.50
2022-11-06T01:25:30.955Z,8.27
2022-11-06T01:27:58.893Z,8.80
2022-11-06T01:30:26.905Z,8.13
2022-11-06T01:32:54.840Z,8.03
2022-11-06T01:35:22.855Z,8.47
2022-11-06T01:37:50.906Z,8.30
2022-11-06T01:40:20.148Z,7.80
2022-11-06T01:42:48.070Z,8.60
2022-11-06T01:45:30.750Z,6.70
2022-11-06T01:47:58.757Z,6.80
2022-11-06T01:50:27.301Z,7.70
2022-11-06T01:52:55.435Z,8.77
2022-11-06T01:55:29.914Z,8.13
2022-11-06T01:57:58.733Z,7.57
2022-11-06T02:00:27.720Z,7.20
2022-11-06T02:02:56.561Z,7.53
2022-11-06T02:05:24.685Z,7.37
2022-11-06T02:07:54.406Z,7.23
2022-11-06T02:10:22.391Z,7.40
2022-11-06T02:13:01.052Z,8.50
2022-11-06T02:15:38.217Z,7.63
2022-11-06T02:18:25.453Z,7.53
2022-11-06T02:21:17.640Z,7.73
2022-11-06T02:23:58.956Z,6.83
2022-11-06T02:27:01.664Z,6.87
2022-11-06T02:29:38.120Z,7.87
2022-11-06T02:32:11.102Z,7.60
2022-11-06T02:34:40.913Z,6.40
2022-11-06T02:37:13.304Z,6.47
2022-11-06T02:39:43.802Z,6.70
2022-11-06T02:42:16.073Z,6.90
2022-11-06T02:44:47.691Z,5.97
2022-11-06T02:47:17.191Z,7.27
2022-11-06T02:49:48.015Z,5.97
2022-11-06T02:52:23.587Z,6.70
2022-11-06T02:54:56.148Z,7.20
2022-11-06T02:57:26.566Z,6.30
2022-11-06T03:00:02.320Z,6.37
2022-11-06T03:02:34.192Z,6.57
2022-11-06T03:05:09.546Z,5.50
2022-11-06T03:07:41.144Z,6.10
2022-11-06T03:10:10.474Z,5.77
2022-11-06T03:12:46.793Z,6.23
2022-11-06T03:15:21.467Z,5.70
2022-11-06T03:17:55.721Z,6.10
2022-11-06T03:20:30.884Z,5.10
2022-11-06T03:23:07.393Z,6.03
2022-11-06T03:25:43.008Z,6.00
2022-11-06T03:28:15.941Z,6.00
2022-11-06T03:30:50.186Z,5.97
2022-11-06T03:33:22.274Z,5.23
2022-11-06T03:35:54.228Z,6.73
2022-11-06T03:38:27.983Z,6.87
2022-11-06T03:41:02.094Z,5.67
2022-11-06T03:43:34.018Z,6.17
2022-11-06T03:46:05.461Z,6.10
2022-11-06T03:48:37.644Z,5.50
2022-11-06T03:51:09.604Z,6.77
2022-11-06T03:53:43.594Z,5.87
2022-11-06T03:56:15.735Z,5.80
2022-11-06T03:58:47.115Z,5.73
2022-11-06T04:01:22.187Z,5.80
2022-11-06T04:03:55.446Z,6.07
2022-11-06T04:06:27.993Z,5.80
2022-11-06T04:09:17.701Z,6.30
2022-11-06T04:12:05.310Z,5.90
2022-11-06T04:14:36.080Z,6.43
2022-11-06T04:17:08.429Z,5.60
2022-11-06T04:19:36.348Z,6.63
2022-11-06T04:22:21.273Z,5.87
2022-11-06T04:25:18.368Z,5.40
2022-11-06T04:28:15.386Z,4.63
2022-11-06T04:31:00.850Z,5.80
2022-11-06T04:33:36.761Z,6.10
2022-11-06T04:36:12.862Z,6.67
2022-11-06T04:38:50.591Z,6.10
2022-11-06T04:41:34.213Z,5.87
2022-11-06T04:44:08.610Z,6.60
2022-11-06T04:46:41.644Z,7.40
2022-11-06T04:49:12.366Z,5.50
2022-11-06T04:51:41.991Z,6.00
2022-11-06T04:54:11.603Z,5.60
2022-11-06T04:56:44.708Z,6.20
2022-11-06T04:59:16.889Z,6.13
2022-11-06T05:01:45.287Z,6.17
2022-11-06T05:04:14.636Z,5.50
2022-11-06T05:06:42.646Z,5.60
2022-11-06T05:09:10.612Z,5.43
2022-11-06T05:11:39.301Z,6.30
2022-11-06T05:14:07.301Z,5.80
2022-11-06T05:16:35.689Z,4.63
2022-11-06T05:19:03.984Z,5.53
2022-11-06T05:21:50.562Z,4.77
2022-11-06T05:24:18.653Z,6.00
2022-11-06T05:26:46.542Z,6.23
2022-11-06T05:29:16.385Z,6.00
2022-11-06T05:31:44.265Z,5.50
2022-11-06T05:34:12.229Z,5.40
2022-11-06T05:36:41.667Z,5.97
2022-11-06T05:39:09.689Z,6.00
2022-11-06T05:41:38.202Z,6.20
2022-11-06T05:44:06.531Z,7.13
2022-11-06T05:46:50.449Z,9.40
2022-11-06T05:49:19.135Z,6.70
2022-11-06T05:51:49.039Z,8.90
2022-11-06T05:54:16.928Z,6.00
2022-11-06T05:56:44.955Z,6.13
2022-11-06T05:59:13.188Z,4.70
2022-11-06T06:01:41.488Z,5.30
2022-11-06T06:04:09.521Z,4.60
2022-11-06T06:06:38.068Z,5.50
2022-11-06T06:09:07.864Z,5.50
2022-11-06T06:11:35.813Z,6.13
2022-11-06T06:14:03.879Z,6.10
2022-11-06T06:16:32.661Z,5.50
2022-11-06T06:19:00.567Z,5.23
2022-11-06T06:21:28.672Z,6.50
2022-11-06T06:23:56.728Z,5.73
2022-11-06T06:26:26.105Z,5.27
2022-11-06T06:28:54.592Z,6.23
2022-11-06T06:31:22.918Z,6.00
2022-11-06T06:33:50.819Z,6.00
2022-11-06T06:36:18.800Z,5.27
2022-11-06T06:38:46.666Z,5.43
2022-11-06T06:41:14.735Z,4.90
2022-11-06T06:43:44.199Z,5.97
2022-11-06T06:46:12.067Z,6.20
2022-11-06T06:48:39.966Z,6.27
2022-11-06T06:51:08.943Z,6.40
2022-11-06T06:53:37.180Z,5.40
2022-11-06T06:56:05.490Z,5.90
2022-11-06T06:58:33.774Z,6.97
2022-11-06T07:01:04.580Z,6.47
2022-11-06T07:03:33.430Z,5.73
2022-11-06T07:06:01.501Z,7.93
2022-11-06T07:08:30.069Z,7.30
2022-11-06T07:11:01.744Z,7.70
2022-11-06T07:13:35.529Z,8.10
2022-11-06T07:16:06.348Z,7.30
2022-11-06T07:18:34.921Z,7.00
2022-11-06T07:21:06.393Z,6.97
2022-11-06T07:23:35.004Z,6.70
2022-11-06T07:26:03.502Z,8.03
2022-11-06T07:28:31.558Z,7.30
2022-11-06T07:31:00.988Z,7.20
2022-11-06T07:33:30.901Z,7.50
2022-11-06T07:36:04.000Z,7.13
2022-11-06T07:38:33.717Z,8.00
2022-11-06T07:41:04.274Z,7.00
2022-11-06T07:43:32.670Z,6.63
2022-11-06T07:46:02.282Z,7.30
2022-11-06T07:48:32.958Z,6.83
2022-11-06T07:51:03.672Z,7.47
2022-11-06T07:53:31.703Z,6.80
2022-11-06T07:55:59.825Z,8.73
2022-11-06T07:58:27.728Z,8.17
2022-11-06T08:00:58.081Z,7.73
2022-11-06T08:03:29.923Z,5.50
2022-11-06T08:05:59.694Z,5.83
2022-11-06T08:08:29.395Z,6.53
2022-11-06T08:10:57.266Z,5.60
2022-11-06T08:13:26.274Z,6.47
2022-11-06T08:15:54.169Z,6.27
2022-11-06T08:18:22.040Z,5.27
2022-11-06T08:20:50.083Z,5.53
2022-11-06T08:23:19.311Z,5.00
2022-11-06T08:25:47.471Z,5.20
2022-11-06T08:28:15.710Z,5.00
2022-11-06T08:30:43.954Z,5.37
2022-11-06T08:33:13.078Z,5.37
2022-11-06T08:35:41.007Z,4.27
2022-11-06T08:38:12.095Z,4.67
2022-11-06T08:40:42.005Z,4.60
2022-11-06T08:43:11.990Z,4.77
2022-11-06T08:45:41.241Z,4.77
2022-11-06T08:48:10.264Z,5.50
2022-11-06T08:50:40.542Z,4.23
2022-11-06T08:53:09.399Z,4.33
2022-11-06T08:55:39.260Z,4.70
2022-11-06T08:58:09.212Z,5.57
2022-11-06T09:00:37.735Z,5.07
2022-11-06T09:03:08.183Z,4.77
2022-11-06T09:05:36.572Z,4.30
2022-11-06T09:08:04.611Z,4.63
2022-11-06T09:10:33.113Z,5.53
2022-11-06T09:13:01.329Z,5.43
2022-11-06T09:15:30.786Z,5.47
2022-11-06T09:17:58.824Z,5.27
2022-11-06T09:20:27.939Z,5.73
2022-11-06T09:23:00.816Z,5.23
2022-11-06T09:25:29.228Z,5.20
2022-11-06T09:27:59.508Z,5.27
2022-11-06T09:30:31.512Z,4.30
2022-11-06T09:33:02.386Z,4.40
2022-11-06T09:35:31.735Z,4.33
2022-11-06T09:38:03.173Z,4.50
2022-11-06T09:40:35.291Z,4.90
2022-11-06T09:43:27.336Z,4.87
2022-11-06T09:46:14.524Z,5.10
2022-11-06T09:48:46.521Z,3.43
2022-11-06T09:51:23.972Z,4.30
2022-11-06T09:53:57.026Z,4.20
2022-11-06T09:56:31.852Z,3.80
2022-11-06T09:59:02.581Z,4.00
2022-11-06T10:01:39.333Z,4.30
2022-11-06T10:04:07.793Z,4.30
2022-11-06T10:06:35.652Z,4.03
2022-11-06T10:09:07.163Z,3.70
2022-11-06T10:11:51.298Z,3.90
2022-11-06T10:14:31.799Z,5.33
2022-11-06T10:17:11.001Z,4.10
2022-11-06T10:19:41.571Z,4.33
2022-11-06T10:22:16.208Z,4.70
2022-11-06T10:24:47.072Z,3.80
2022-11-06T10:27:18.318Z,3.73
2022-11-06T10:30:11.590Z,4.00
2022-11-06T10:33:12.797Z,3.67
2022-11-06T10:35:45.059Z,3.60
2022-11-06T10:38:16.433Z,4.20
2022-11-06T10:40:46.674Z,3.40
2022-11-06T10:43:25.746Z,3.63
2022-11-06T10:46:00.052Z,3.57
2022-11-06T10:48:37.008Z,3.50
2022-11-06T10:51:26.305Z,4.10
2022-11-06T10:54:04.997Z,9.93
2022-11-06T10:56:54.640Z,4.13
2022-11-06T10:59:22.931Z,2.90
2022-11-06T11:01:51.100Z,4.20
2022-11-06T11:04:20.653Z,3.28
2022-11-06T11:06:48.504Z,3.50
2022-11-06T11:09:30.131Z,3.93
2022-11-06T11:11:58.698Z,3.90
2022-11-06T11:14:28.587Z,4.20
2022-11-06T11:16:59.841Z,3.83
2022-11-06T11:19:36.704Z,4.33
2022-11-06T11:22:06.861Z,3.90
2022-11-06T11:24:35.215Z,3.70
2022-11-06T11:27:05.394Z,3.90
2022-11-06T11:29:35.124Z,3.40
2022-11-06T11:32:07.199Z,3.50
2022-11-06T11:34:50.249Z,3.83
2022-11-06T11:37:26.982Z,3.90
2022-11-06T11:39:55.064Z,3.20
2022-11-06T11:42:28.683Z,2.50
2022-11-06T11:45:16.032Z,3.07
2022-11-06T11:47:46.576Z,2.23
2022-11-06T11:50:28.847Z,2.50
2022-11-06T11:53:09.658Z,2.30
2022-11-06T11:55:42.352Z,2.33
2022-11-06T11:58:21.458Z,2.50
2022-11-06T12:00:55.261Z,2.40
2022-11-06T12:03:25.667Z,2.87
2022-11-06T12:06:04.770Z,2.77
2022-11-06T12:08:32.973Z,2.47
2022-11-06T12:11:04.482Z,2.38
2022-11-06T12:13:32.599Z,2.77
2022-11-06T12:16:03.552Z,3.77
2022-11-06T12:18:35.414Z,2.57
2022-11-06T12:21:07.444Z,2.60
2022-11-06T12:23:40.486Z,2.53
2022-11-06T12:26:16.576Z,3.33
2022-11-06T12:28:47.270Z,2.37
2022-11-06T12:31:21.946Z,2.40
2022-11-06T12:34:06.916Z,2.30
2022-11-06T12:36:43.113Z,2.20
2022-11-06T12:39:16.527Z,2.30
2022-11-06T12:41:48.197Z,2.80
2022-11-06T12:44:18.035Z,3.07
2022-11-06T12:46:56.180Z,2.50
2022-11-06T12:49:43.873Z,2.17
2022-11-06T12:52:29.021Z,3.17
2022-11-06T12:55:12.074Z,3.53
2022-11-06T12:57:47.851Z,2.47
2022-11-06T13:00:20.061Z,2.10
2022-11-06T13:03:06.301Z,2.70
2022-11-06T13:05:39.995Z,3.00
2022-11-06T13:08:21.020Z,2.83
2022-11-06T13:11:07.676Z,2.80
2022-11-06T13:13:46.512Z,2.47
2022-11-06T13:16:25.223Z,3.10
2022-11-06T13:18:57.873Z,2.20
2022-11-06T13:21:33.906Z,3.00
2022-11-06T13:24:11.686Z,2.63
2022-11-06T13:26:44.569Z,3.13
2022-11-06T13:29:15.847Z,2.95
2022-11-06T13:31:49.282Z,2.90
2022-11-06T13:34:23.432Z,2.60
2022-11-06T13:36:52.258Z,2.87
2022-11-06T13:39:29.552Z,2.67
2022-11-06T13:41:58.958Z,3.07
2022-11-06T13:44:27.775Z,2.07
2022-11-06T13:47:00.205Z,2.70
2022-11-06T13:49:35.687Z,2.53
2022-11-06T13:52:09.439Z,2.70
2022-11-06T13:54:54.376Z,2.57
2022-11-06T13:58:00.409Z,2.47
2022-11-06T14:00:39.795Z,2.50
2022-11-06T14:03:42.116Z,2.70
2022-11-06T14:06:16.114Z,2.63
2022-11-06T14:08:47.999Z,2.03
2022-11-06T14:11:19.837Z,2.20
2022-11-06T14:14:00.143Z,2.60
2022-11-06T14:16:32.018Z,2.30
2022-11-06T14:19:07.263Z,2.07
2022-11-06T14:21:51.187Z,2.30
2022-11-06T14:24:30.867Z,2.27
2022-11-06T14:27:01.839Z,3.20
2022-11-06T14:29:59.775Z,3.00
2022-11-06T14:32:42.774Z,2.87
2022-11-06T14:35:48.539Z,2.77
2022-11-06T14:38:45.371Z,2.70
2022-11-06T14:41:50.077Z,3.30
2022-11-06T14:44:42.894Z,2.73
2022-11-06T14:47:24.684Z,2.60
2022-11-06T14:49:55.888Z,3.10
2022-11-06T14:52:26.170Z,2.73
2022-11-06T14:55:04.514Z,3.03
2022-11-06T14:57:45.898Z,2.73
2022-11-06T15:00:32.669Z,3.53
2022-11-06T15:03:04.337Z,2.50
2022-11-06T15:05:41.977Z,3.30
2022-11-06T15:08:10.952Z,3.43
2022-11-06T15:10:53.991Z,2.70
2022-11-06T15:13:27.655Z,2.63
2022-11-06T15:16:03.564Z,2.90
2022-11-06T15:18:34.157Z,3.00
2022-11-06T15:21:04.781Z,3.17
2022-11-06T15:23:39.203Z,2.97
2022-11-06T15:26:15.886Z,2.97
2022-11-06T15:28:47.925Z,3.00
2022-11-06T15:31:19.448Z,3.40
2022-11-06T15:33:56.206Z,2.90
2022-11-06T15:36:25.368Z,3.30
2022-11-06T15:38:53.486Z,3.53
2022-11-06T15:41:24.322Z,3.47
2022-11-06T15:43:55.105Z,3.17
2022-11-06T15:46:26.875Z,4.30
2022-11-06T15:49:09.555Z,3.93
2022-11-06T15:51:41.232Z,3.00
2022-11-06T15:54:14.588Z,3.83
2022-11-06T15:56:43.287Z,3.57
2022-11-06T15:59:13.929Z,3.20
2022-11-06T16:01:47.660Z,3.70
2022-11-06T16:04:20.486Z,3.20
2022-11-06T16:06:49.352Z,3.20
2022-11-06T16:09:20.886Z,2.97
2022-11-06T16:11:52.057Z,4.07
2022-11-06T16:14:20.948Z,3.53
2022-11-06T16:16:52.842Z,3.23
2022-11-06T16:19:28.510Z,3.60
2022-11-06T16:22:00.742Z,4.07
2022-11-06T16:24:32.218Z,3.50
2022-11-06T16:27:01.284Z,4.28
2022-11-06T16:29:31.940Z,4.10
2022-11-06T16:32:04.087Z,3.67
2022-11-06T16:34:37.621Z,4.33
2022-11-06T16:37:27.542Z,3.37
2022-11-06T16:39:56.156Z,4.30
2022-11-06T16:42:30.270Z,3.37
2022-11-06T16:45:20.060Z,3.50
2022-11-06T16:48:29.362Z,4.40
2022-11-06T16:51:00.110Z,4.63
2022-11-06T16:53:30.501Z,5.40
2022-11-06T16:56:00.681Z,3.88
2022-11-06T16:58:31.040Z,4.13
2022-11-06T17:01:01.754Z,4.55
2022-11-06T17:03:38.938Z,4.50
2022-11-06T17:06:08.402Z,4.67
2022-11-06T17:08:37.970Z,4.60
2022-11-06T17:11:22.015Z,4.67
2022-11-06T17:13:51.268Z,4.60
2022-11-06T17:16:21.474Z,4.90
2022-11-06T17:18:51.354Z,5.77
2022-11-06T17:21:21.496Z,4.10
2022-11-06T17:23:50.231Z,3.97
2022-11-06T17:26:21.082Z,5.20
2022-11-06T17:28:49.467Z,4.57
2022-11-06T17:31:19.009Z,5.20
2022-11-06T17:33:47.413Z,4.93
2022-11-06T17:36:20.317Z,5.77
2022-11-06T17:38:49.394Z,5.37
2022-11-06T17:41:30.018Z,4.22
2022-11-06T17:43:58.628Z,5.50
2022-11-06T17:46:27.702Z,4.27
2022-11-06T17:48:56.568Z,4.90
2022-11-06T17:51:43.768Z,4.63
2022-11-06T17:54:13.533Z,4.77
2022-11-06T17:56:41.917Z,4.90
2022-11-06T17:59:10.874Z,5.17
2022-11-06T18:01:38.906Z,5.23
2022-11-06T18:04:08.511Z,4.70
2022-11-06T18:06:38.370Z,4.38
2022-11-06T18:09:08.187Z,4.40
2022-11-06T18:11:36.101Z,4.33
2022-11-06T18:14:04.535Z,4.23
2022-11-06T18:16:39.664Z,3.97
2022-11-06T18:19:09.993Z,4.50
2022-11-06T18:21:39.305Z,4.20
2022-11-06T18:24:08.404Z,5.30
2022-11-06T18:26:37.375Z,5.20
2022-11-06T18:29:05.827Z,5.47
2022-11-06T18:31:34.411Z,5.23
2022-11-06T18:34:03.592Z,6.87
2022-11-06T18:36:33.203Z,6.17
2022-11-06T18:39:02.448Z,6.60
2022-11-06T18:41:30.975Z,6.80
2022-11-06T18:44:00.281Z,6.20
2022-11-06T18:46:29.761Z,6.67
2022-11-06T18:48:58.315Z,5.97
2022-11-06T18:51:35.187Z,7.30
2022-11-06T18:54:07.976Z,6.57
2022-11-06T18:56:37.419Z,7.20
2022-11-06T18:59:06.820Z,7.37
2022-11-06T19:01:35.787Z,6.60
2022-11-06T19:04:05.396Z,6.43
2022-11-06T19:06:33.613Z,5.87
2022-11-06T19:09:01.637Z,6.75
2022-11-06T19:11:30.956Z,4.80
2022-11-06T19:13:59.332Z,5.90
2022-11-06T19:16:27.228Z,6.33
2022-11-06T19:21:30.201Z,5.67
2022-11-06T19:24:05.244Z,5.00
2022-11-06T19:26:36.545Z,5.37
2022-11-06T19:29:07.297Z,4.50
2022-11-06T19:31:37.282Z,3.78
2022-11-06T19:34:07.271Z,4.60
2022-11-06T19:36:35.997Z,4.10
2022-11-06T19:39:03.970Z,5.23
2022-11-06T19:41:32.035Z,4.60
2022-11-06T19:44:01.451Z,4.10
2022-11-06T19:46:35.089Z,4.20
2022-11-06T19:49:03.673Z,3.60
2022-11-06T19:51:31.869Z,3.25
2022-11-06T19:54:01.535Z,3.90
2022-11-06T19:56:29.535Z,3.47
2022-11-06T19:58:57.608Z,3.67
2022-11-06T20:01:27.203Z,4.03
2022-11-06T20:03:55.384Z,4.10
2022-11-06T20:06:24.325Z,3.23
2022-11-06T20:08:52.380Z,3.93
2022-11-06T20:11:20.329Z,4.07
2022-11-06T20:13:48.760Z,4.07
2022-11-06T20:16:18.644Z,3.93
2022-11-06T20:18:52.121Z,4.73
2022-11-06T20:21:21.000Z,3.80
2022-11-06T20:23:49.257Z,3.45
2022-11-06T20:26:17.779Z,4.70
2022-11-06T20:28:48.358Z,3.77
2022-11-06T20:31:19.958Z,4.03
2022-11-06T20:33:49.790Z,4.10
2022-11-06T20:36:20.615Z,5.00
2022-11-06T20:38:48.878Z,4.30
2022-11-06T20:41:18.113Z,4.17
2022-11-06T20:43:46.338Z,4.43
2022-11-06T20:46:15.957Z,4.30
2022-11-06T20:48:45.182Z,4.10
2022-11-06T20:51:17.565Z,4.45
2022-11-06T20:53:46.638Z,4.10
2022-11-06T20:56:17.006Z,4.77
2022-11-06T20:58:45.850Z,4.70
2022-11-06T21:01:17.655Z,4.40
2022-11-06T21:03:46.162Z,4.07
2022-11-06T21:06:16.038Z,4.70
2022-11-06T21:08:44.402Z,4.30
2022-11-06T21:11:16.919Z,3.67
2022-11-06T21:13:46.427Z,3.87
2022-11-06T21:16:16.597Z,3.55
2022-11-06T21:18:45.817Z,3.00
2022-11-06T21:21:17.419Z,2.90
2022-11-06T21:23:45.454Z,2.90
2022-11-06T21:26:15.590Z,3.37
2022-11-06T21:28:44.314Z,2.57
2022-11-06T21:31:14.317Z,1.67
2022-11-06T21:33:42.672Z,2.20
2022-11-06T21:36:12.834Z,1.53
2022-11-06T21:38:42.578Z,2.30
2022-11-06T21:41:13.330Z,1.47
2022-11-06T21:43:41.569Z,2.03
2022-11-06T21:46:11.471Z,1.90
2022-11-06T21:48:46.295Z,1.53
2022-11-06T21:51:18.935Z,1.67
2022-11-06T21:54:06.903Z,1.53
2022-11-06T21:56:37.830Z,1.60
2022-11-06T21:59:07.299Z,1.57
2022-11-06T22:01:35.357Z,1.60
2022-11-06T22:04:03.400Z,1.70
2022-11-06T22:06:31.854Z,1.67
2022-11-06T22:09:02.694Z,1.60
2022-11-06T22:11:33.081Z,1.20
2022-11-06T22:14:02.785Z,1.50
2022-11-06T22:16:33.539Z,1.30
2022-11-06T22:19:01.692Z,1.27
2022-11-06T22:21:31.478Z,1.43
2022-11-06T22:24:01.243Z,1.10
2022-11-06T22:26:31.708Z,1.33
2022-11-06T22:29:02.504Z,1.40
2022-11-06T22:31:31.139Z,1.23
2022-11-06T22:33:59.498Z,1.33
2022-11-06T22:36:27.894Z,1.20
2022-11-06T22:38:56.652Z,1.27
2022-11-06T22:41:26.467Z,1.60
2022-11-06T22:43:58.341Z,1.30
2022-11-06T22:46:26.880Z,1.77
2022-11-06T22:48:55.230Z,1.13
2022-11-06T22:51:25.085Z,1.00
2022-11-06T22:53:53.536Z,1.20
2022-11-06T22:56:22.875Z,1.10
2022-11-06T22:58:56.045Z,1.17
2022-11-06T23:01:26.376Z,1.30
2022-11-06T23:03:56.884Z,1.40
2022-11-06T23:06:25.986Z,0.83
2022-11-06T23:08:54.707Z,0.90
2022-11-06T23:11:24.237Z,1.00
2022-11-06T23:13:53.469Z,1.27
2022-11-06T23:16:44.662Z,1.10
2022-11-06T23:19:15.694Z,1.20
2022-11-06T23:21:44.467Z,1.07
2022-11-06T23:24:12.928Z,1.13
2022-11-06T23:26:42.675Z,1.00
2022-11-06T23:32:47.319Z,1.40
2022-11-06T23:35:17.146Z,1.07
2022-11-06T23:37:45.417Z,1.03
2022-11-06T23:40:13.754Z,1.10
2022-11-06T23:42:43.297Z,0.90
2022-11-06T23:45:29.840Z,1.10
2022-11-06T23:48:01.219Z,1.27
2022-11-06T23:50:33.154Z,1.00
2022-11-06T23:53:01.097Z,1.00
2022-11-06T23:55:28.954Z,1.60
2022-11-06T23:57:57.709Z,1.10
